Time;durP1;ratioP1;P1;durP2;ratioP2;P2;SDS_P1;SDS_P2;PMS_P1;PMS_P2;Temp;Humidity;BMP_temperature;BMP_pressure;BME280_temperature;BME280_humidity;BME280_pressure;Samples;Min_cycle;Max_cycle;Signal;HPM_P1;HPM_P2
2021/10/19 00:01:47;;;;;;;108.18;46.90;;;;;;;;;;4960372;28;20023;-77
2021/10/19 00:04:13;;;;;;;93.63;41.72;;;;;;;;;;4961154;29;20389;-78
2021/10/19 00:06:39;;;;;;;78.85;38.13;;;;;;;;;;4956365;29;20027;-77
2021/10/19 00:09:06;;;;;;;82.93;39.85;;;;;;;;;;4960389;29;20031;-76
2021/10/19 00:11:33;;;;;;;76.32;35.70;;;;;;;;;;4964185;29;20091;-76
2021/10/19 00:14:03;;;;;;;64.32;33.65;;;;;;;;;;4947903;29;20507;-77
2021/10/19 00:16:31;;;;;;;45.22;25.10;;;;;;;;;;4960977;29;20091;-78
2021/10/19 00:18:58;;;;;;;53.15;28.48;;;;;;;;;;4948980;29;20039;-78
2021/10/19 00:21:24;;;;;;;43.50;23.20;;;;;;;;;;4962279;29;20023;-77
2021/10/19 00:23:50;;;;;;;36.92;21.85;;;;;;;;;;4955731;29;20039;-77
2021/10/19 00:26:16;;;;;;;35.20;20.88;;;;;;;;;;4959186;29;20088;-77
2021/10/19 00:28:42;;;;;;;35.70;20.42;;;;;;;;;;4964431;29;20035;-75
2021/10/19 00:31:08;;;;;;;38.85;22.95;;;;;;;;;;4964761;29;20046;-78
2021/10/19 00:33:34;;;;;;;47.35;24.85;;;;;;;;;;4962509;29;20030;-77
2021/10/19 00:36:00;;;;;;;45.13;25.00;;;;;;;;;;4955106;29;20042;-76
2021/10/19 00:38:26;;;;;;;53.63;27.25;;;;;;;;;;4959238;29;20164;-78
2021/10/19 00:40:52;;;;;;;43.30;24.20;;;;;;;;;;4964014;29;20023;-77
2021/10/19 00:43:18;;;;;;;31.95;20.27;;;;;;;;;;4959126;29;20035;-76
2021/10/19 00:45:44;;;;;;;51.92;25.60;;;;;;;;;;4961631;29;20026;-78
2021/10/19 00:48:15;;;;;;;37.33;21.17;;;;;;;;;;4964271;29;20033;-78
2021/10/19 00:50:41;;;;;;;46.38;26.00;;;;;;;;;;4965218;29;20048;-78
2021/10/19 00:53:07;;;;;;;26.67;17.23;;;;;;;;;;4963274;29;20026;-78
2021/10/19 00:55:34;;;;;;;24.25;15.32;;;;;;;;;;4961372;29;20035;-72
2021/10/19 00:58:01;;;;;;;22.98;15.10;;;;;;;;;;4951945;29;20030;-78
2021/10/19 01:00:27;;;;;;;26.42;15.20;;;;;;;;;;4956311;29;20070;-78
2021/10/19 01:02:54;;;;;;;20.05;15.25;;;;;;;;;;4960674;29;20019;-77
2021/10/19 01:05:20;;;;;;;22.00;15.93;;;;;;;;;;4963035;29;20047;-78
2021/10/19 01:07:46;;;;;;;29.20;15.68;;;;;;;;;;4961602;29;20048;-78
2021/10/19 01:10:12;;;;;;;23.20;16.55;;;;;;;;;;4953568;28;20087;-78
2021/10/19 01:12:39;;;;;;;22.80;16.42;;;;;;;;;;4953254;28;20033;-77
2021/10/19 01:15:09;;;;;;;25.35;15.80;;;;;;;;;;4954996;29;20035;-78
2021/10/19 01:17:40;;;;;;;24.83;16.25;;;;;;;;;;4960188;29;20047;-73
2021/10/19 01:20:14;;;;;;;22.88;16.40;;;;;;;;;;4961973;29;20035;-77
2021/10/19 01:22:40;;;;;;;23.98;16.63;;;;;;;;;;4961719;29;20027;-78
2021/10/19 01:25:06;;;;;;;25.17;16.13;;;;;;;;;;4959707;29;20086;-77
2021/10/19 01:27:32;;;;;;;22.58;16.45;;;;;;;;;;4956790;29;20035;-78
2021/10/19 01:29:58;;;;;;;25.15;17.10;;;;;;;;;;4960634;29;20043;-78
2021/10/19 01:32:24;;;;;;;23.92;16.75;;;;;;;;;;4960877;29;20023;-78
2021/10/19 01:34:50;;;;;;;24.40;16.95;;;;;;;;;;4961017;29;20031;-78
2021/10/19 01:37:16;;;;;;;26.00;17.83;;;;;;;;;;4960407;29;20078;-78
2021/10/19 01:39:42;;;;;;;26.30;18.98;;;;;;;;;;4957292;29;20033;-77
2021/10/19 01:42:09;;;;;;;33.53;20.20;;;;;;;;;;4958613;29;20035;-75
2021/10/19 01:44:35;;;;;;;35.38;21.25;;;;;;;;;;4955359;29;20425;-77
2021/10/19 01:47:01;;;;;;;39.58;22.60;;;;;;;;;;4955352;29;20121;-77
2021/10/19 01:49:27;;;;;;;36.75;20.45;;;;;;;;;;4952799;29;20042;-77
2021/10/19 01:51:55;;;;;;;25.90;19.35;;;;;;;;;;4950747;29;20027;-78
2021/10/19 01:54:21;;;;;;;27.88;18.88;;;;;;;;;;4958595;29;20143;-78
2021/10/19 01:56:47;;;;;;;25.58;18.33;;;;;;;;;;4960694;29;20031;-77
2021/10/19 01:59:15;;;;;;;20.70;16.60;;;;;;;;;;4959706;28;20083;-78
2021/10/19 02:01:42;;;;;;;30.55;17.73;;;;;;;;;;4959232;29;20037;-77
2021/10/19 02:04:08;;;;;;;27.98;18.10;;;;;;;;;;4953699;29;20038;-78
2021/10/19 02:06:34;;;;;;;23.92;18.38;;;;;;;;;;4957744;29;20140;-76
2021/10/19 02:09:00;;;;;;;21.05;16.70;;;;;;;;;;4955231;29;20023;-77
2021/10/19 02:11:26;;;;;;;21.83;16.63;;;;;;;;;;4959603;29;20058;-77
2021/10/19 02:13:52;;;;;;;26.73;16.55;;;;;;;;;;4957414;29;20020;-77
2021/10/19 02:16:18;;;;;;;25.33;15.88;;;;;;;;;;4957893;29;20023;-78
2021/10/19 02:18:44;;;;;;;27.83;16.10;;;;;;;;;;4957731;29;20034;-77
2021/10/19 02:21:10;;;;;;;23.85;16.92;;;;;;;;;;4956862;29;20045;-77
2021/10/19 02:23:36;;;;;;;29.77;16.95;;;;;;;;;;4958949;29;20027;-77
2021/10/19 02:26:02;;;;;;;26.00;17.35;;;;;;;;;;4963818;28;20050;-78
2021/10/19 02:28:28;;;;;;;25.27;17.98;;;;;;;;;;4962980;28;20461;-75
2021/10/19 02:30:54;;;;;;;23.80;17.15;;;;;;;;;;4961191;29;20440;-75
2021/10/19 02:33:21;;;;;;;23.88;16.33;;;;;;;;;;4960701;29;20047;-77
2021/10/19 02:35:47;;;;;;;26.10;16.67;;;;;;;;;;4960799;29;20082;-77
2021/10/19 02:38:13;;;;;;;27.63;17.00;;;;;;;;;;4961072;29;20114;-77
2021/10/19 02:40:44;;;;;;;24.05;16.50;;;;;;;;;;4961243;29;20031;-77
2021/10/19 02:43:10;;;;;;;26.17;17.23;;;;;;;;;;4959552;29;20063;-76
2021/10/19 02:45:36;;;;;;;21.75;16.08;;;;;;;;;;4959279;29;20039;-77
2021/10/19 02:48:02;;;;;;;23.77;15.93;;;;;;;;;;4961311;29;20027;-77
2021/10/19 02:50:29;;;;;;;23.98;16.02;;;;;;;;;;4935798;29;20055;-72
2021/10/19 02:52:56;;;;;;;25.40;15.98;;;;;;;;;;4945965;29;20035;-77
2021/10/19 02:55:22;;;;;;;26.75;16.10;;;;;;;;;;4961179;29;20042;-77
2021/10/19 02:57:48;;;;;;;29.48;16.13;;;;;;;;;;4961372;28;20098;-77
2021/10/19 03:00:15;;;;;;;21.98;14.35;;;;;;;;;;4963952;29;20051;-71
2021/10/19 03:02:41;;;;;;;22.58;14.27;;;;;;;;;;4960988;29;20074;-77
2021/10/19 03:05:12;;;;;;;21.60;14.05;;;;;;;;;;4962368;29;20028;-78
2021/10/19 03:07:38;;;;;;;23.70;14.60;;;;;;;;;;4959244;29;20019;-75
2021/10/19 03:10:07;;;;;;;25.90;14.32;;;;;;;;;;4960077;29;20433;-77
2021/10/19 03:12:33;;;;;;;27.05;14.73;;;;;;;;;;4959623;29;20156;-74
2021/10/19 03:14:59;;;;;;;27.65;16.65;;;;;;;;;;4955856;29;20034;-74
2021/10/19 03:17:25;;;;;;;42.40;20.73;;;;;;;;;;4958429;29;20030;-78
2021/10/19 03:19:51;;;;;;;63.90;31.63;;;;;;;;;;4960714;29;20024;-77
2021/10/19 03:22:17;;;;;;;67.15;32.22;;;;;;;;;;4959561;29;20497;-77
2021/10/19 03:24:43;;;;;;;63.90;30.15;;;;;;;;;;4960209;29;20085;-77
2021/10/19 03:27:09;;;;;;;49.83;23.98;;;;;;;;;;4957458;29;20438;-77
2021/10/19 03:29:35;;;;;;;86.47;36.22;;;;;;;;;;4949678;29;20031;-77
2021/10/19 03:32:02;;;;;;;77.25;33.55;;;;;;;;;;4941594;29;20079;-76
2021/10/19 03:34:28;;;;;;;67.43;30.27;;;;;;;;;;4959657;29;20031;-77
2021/10/19 03:36:54;;;;;;;71.75;30.45;;;;;;;;;;4957258;28;20031;-77
2021/10/19 03:39:22;;;;;;;76.07;31.35;;;;;;;;;;4959571;29;20030;-77
2021/10/19 03:41:51;;;;;;;92.30;39.20;;;;;;;;;;4960198;29;20027;-78
2021/10/19 03:44:17;;;;;;;120.70;46.15;;;;;;;;;;4959941;29;20152;-77
2021/10/19 03:46:43;;;;;;;95.93;41.50;;;;;;;;;;4959324;29;20019;-77
2021/10/19 03:49:09;;;;;;;77.57;33.92;;;;;;;;;;4960498;29;20030;-78
2021/10/19 03:51:35;;;;;;;60.60;26.55;;;;;;;;;;4960997;29;20039;-78
2021/10/19 03:54:01;;;;;;;91.85;37.67;;;;;;;;;;4963257;29;20525;-76
2021/10/19 03:56:27;;;;;;;81.68;34.45;;;;;;;;;;4962831;29;20034;-77
2021/10/19 03:58:53;;;;;;;82.15;33.88;;;;;;;;;;4959888;29;20035;-77
2021/10/19 04:01:19;;;;;;;91.78;35.13;;;;;;;;;;4961020;29;20043;-78
2021/10/19 04:03:45;;;;;;;57.22;27.10;;;;;;;;;;4960564;29;20420;-74
2021/10/19 04:06:12;;;;;;;78.20;33.22;;;;;;;;;;4959312;29;20405;-76
2021/10/19 04:08:39;;;;;;;69.43;29.65;;;;;;;;;;4961375;29;20350;-77
2021/10/19 04:11:05;;;;;;;50.33;24.75;;;;;;;;;;4949819;29;20043;-77
2021/10/19 04:13:31;;;;;;;38.97;20.52;;;;;;;;;;4959248;29;20035;-76
2021/10/19 04:15:59;;;;;;;24.48;15.90;;;;;;;;;;4959297;29;20038;-77
2021/10/19 04:18:27;;;;;;;24.70;15.95;;;;;;;;;;4962717;29;20060;-78
2021/10/19 04:20:56;;;;;;;25.33;15.60;;;;;;;;;;4940655;29;20036;-77
2021/10/19 04:24:00;;;;;;;41.08;21.50;;;;;;;;;;4953786;29;20465;-78
2021/10/19 04:26:27;;;;;;;50.50;22.25;;;;;;;;;;4939561;28;20389;-78
2021/10/19 04:28:53;;;;;;;41.53;21.65;;;;;;;;;;4956628;28;20047;-78
2021/10/19 04:31:43;;;;;;;;;;;;;;;;;;;;;
2021/10/19 04:34:14;;;;;;;28.13;17.77;;;;;;;;;;4910676;29;20040;-78
2021/10/19 04:36:41;;;;;;;27.48;17.88;;;;;;;;;;4960957;29;20023;-78
2021/10/19 04:39:08;;;;;;;37.47;20.17;;;;;;;;;;4960783;29;20026;-76
2021/10/19 04:41:34;;;;;;;43.25;22.08;;;;;;;;;;4959364;29;20023;-77
2021/10/19 04:44:00;;;;;;;36.22;19.30;;;;;;;;;;4958129;29;20106;-77
2021/10/19 04:46:33;;;;;;;38.45;19.35;;;;;;;;;;4962097;29;20058;-77
2021/10/19 04:49:08;;;;;;;;;;;;;;;;;;4962662;28;20023;-76
2021/10/19 04:51:34;;;;;;;;;;;;;;;;;;4955987;29;19981;-76
2021/10/19 04:54:01;;;;;;;31.85;15.60;;;;;;;;;;4941002;29;19965;-76
2021/10/19 04:56:29;;;;;;;31.38;15.70;;;;;;;;;;4957364;29;20462;-77
2021/10/19 04:58:55;;;;;;;33.42;17.25;;;;;;;;;;4958471;29;20039;-77
2021/10/19 05:01:21;;;;;;;40.15;17.25;;;;;;;;;;4959749;29;20031;-77
2021/10/19 05:03:48;;;;;;;40.40;19.60;;;;;;;;;;4958574;29;20039;-77
2021/10/19 05:06:14;;;;;;;87.20;46.17;;;;;;;;;;4958238;29;20106;-77
2021/10/19 05:08:43;;;;;;;146.60;76.00;;;;;;;;;;4959286;29;20090;-77
2021/10/19 05:11:09;;;;;;;156.60;81.07;;;;;;;;;;4959220;29;20055;-77
2021/10/19 05:13:35;;;;;;;143.98;69.68;;;;;;;;;;4961314;29;20365;-77
2021/10/19 05:16:01;;;;;;;152.15;73.28;;;;;;;;;;4959155;29;20034;-77
2021/10/19 05:18:27;;;;;;;115.50;57.83;;;;;;;;;;4959511;29;20098;-78
2021/10/19 05:20:53;;;;;;;68.35;35.10;;;;;;;;;;4960072;29;20035;-76
2021/10/19 05:23:20;;;;;;;47.17;24.27;;;;;;;;;;4936661;29;20035;-69
2021/10/19 05:25:46;;;;;;;46.53;22.52;;;;;;;;;;4960799;29;20059;-76
2021/10/19 05:29:25;;;;;;;48.63;24.02;;;;;;;;;;4955692;28;20409;-75
2021/10/19 05:31:22;;;;;;;39.38;21.67;;;;;;;;;;4950772;29;20717;-71
2021/10/19 05:33:48;;;;;;;42.40;21.55;;;;;;;;;;4954194;29;20503;-69
2021/10/19 05:36:15;;;;;;;84.03;37.72;;;;;;;;;;4955050;29;20058;-70
2021/10/19 05:38:41;;;;;;;76.35;37.50;;;;;;;;;;4953547;29;20035;-69
2021/10/19 05:41:07;;;;;;;68.43;29.27;;;;;;;;;;4954781;29;20046;-69
2021/10/19 05:43:33;;;;;;;38.65;21.25;;;;;;;;;;4954363;29;20063;-67
2021/10/19 05:46:01;;;;;;;32.53;16.73;;;;;;;;;;4954687;29;20034;-70
2021/10/19 05:48:29;;;;;;;24.75;13.73;;;;;;;;;;4953940;29;20598;-70
2021/10/19 05:50:55;;;;;;;20.85;13.35;;;;;;;;;;4954049;29;20042;-68
2021/10/19 05:53:21;;;;;;;30.42;18.00;;;;;;;;;;4953164;29;20102;-68
2021/10/19 05:55:47;;;;;;;89.07;43.60;;;;;;;;;;4954300;29;20078;-69
2021/10/19 05:58:13;;;;;;;56.20;32.08;;;;;;;;;;4953940;29;20495;-65
2021/10/19 06:00:41;;;;;;;39.40;19.45;;;;;;;;;;4952869;28;20047;-73
2021/10/19 06:03:13;;;;;;;42.05;19.60;;;;;;;;;;4956437;29;20031;-72
2021/10/19 06:05:41;;;;;;;41.03;21.58;;;;;;;;;;4940007;29;20042;-74
2021/10/19 06:08:07;;;;;;;33.88;19.45;;;;;;;;;;4968396;23;20150;-73
2021/10/19 06:10:33;;;;;;;28.20;19.77;;;;;;;;;;4920693;29;20078;-76
2021/10/19 06:13:10;;;;;;;31.15;19.67;;;;;;;;;;4938376;29;20433;-77
2021/10/19 06:15:36;;;;;;;35.28;20.13;;;;;;;;;;4944463;29;20023;-77
2021/10/19 06:18:04;;;;;;;41.47;21.90;;;;;;;;;;4937237;29;20043;-75
2021/10/19 06:20:30;;;;;;;31.02;21.20;;;;;;;;;;4938564;29;20024;-74
2021/10/19 06:22:56;;;;;;;35.55;21.35;;;;;;;;;;4944672;29;20062;-74
2021/10/19 06:25:31;;;;;;;36.33;19.45;;;;;;;;;;4945290;29;20024;-73
2021/10/19 06:27:57;;;;;;;31.27;19.67;;;;;;;;;;4939873;29;20036;-73
2021/10/19 06:30:23;;;;;;;30.48;19.73;;;;;;;;;;4934960;29;20237;-75
2021/10/19 06:32:49;;;;;;;31.45;20.02;;;;;;;;;;4922513;29;20040;-77
2021/10/19 06:40:37;;;;;;;39.13;22.30;;;;;;;;;;5010139;23;20078;-77
2021/10/19 06:43:05;;;;;;;28.00;18.73;;;;;;;;;;4992845;28;20048;-78
2021/10/19 06:45:31;;;;;;;43.88;24.20;;;;;;;;;;4995556;28;20030;-75
2021/10/19 06:47:57;;;;;;;47.33;23.90;;;;;;;;;;4991809;28;20054;-78
2021/10/19 06:50:25;;;;;;;32.78;21.52;;;;;;;;;;4982826;28;20046;-76
2021/10/19 06:53:19;;;;;;;25.42;19.55;;;;;;;;;;4984123;28;20093;-73
2021/10/19 06:55:57;;;;;;;26.20;19.00;;;;;;;;;;4962071;28;20065;-77
2021/10/19 06:58:25;;;;;;;28.67;18.75;;;;;;;;;;4979221;28;20030;-71
2021/10/19 07:00:51;;;;;;;32.58;20.02;;;;;;;;;;4986531;28;20068;-77
2021/10/19 07:03:17;;;;;;;27.67;18.80;;;;;;;;;;4980131;28;20030;-78
2021/10/19 07:05:43;;;;;;;32.75;19.80;;;;;;;;;;4979652;28;20551;-76
2021/10/19 07:08:09;;;;;;;30.48;18.73;;;;;;;;;;4978073;28;20473;-76
2021/10/19 07:10:36;;;;;;;25.40;17.08;;;;;;;;;;4983033;28;20041;-74
2021/10/19 07:13:05;;;;;;;25.95;17.13;;;;;;;;;;4982521;28;20023;-74
2021/10/19 07:15:34;;;;;;;27.10;18.20;;;;;;;;;;4966271;28;20026;-75
2021/10/19 07:18:03;;;;;;;26.63;17.70;;;;;;;;;;4982063;28;20023;-73
2021/10/19 07:23:05;;;;;;;24.83;17.25;;;;;;;;;;4884471;26;20138;-76
2021/10/19 07:25:31;;;;;;;27.25;19.58;;;;;;;;;;4983926;28;20118;-74
2021/10/19 07:27:58;;;;;;;36.55;18.55;;;;;;;;;;4996200;28;20023;-77
2021/10/19 07:30:24;;;;;;;26.67;17.52;;;;;;;;;;4983853;28;20035;-74
2021/10/19 07:32:50;;;;;;;30.15;19.48;;;;;;;;;;4976190;28;20027;-75
2021/10/19 07:35:18;;;;;;;31.67;21.27;;;;;;;;;;4985177;28;20201;-77
2021/10/19 07:37:44;;;;;;;27.60;19.08;;;;;;;;;;4982634;28;20026;-78
2021/10/19 07:40:11;;;;;;;32.75;20.33;;;;;;;;;;4985900;28;20038;-78
2021/10/19 07:42:37;;;;;;;30.40;20.98;;;;;;;;;;4974917;28;20037;-76
2021/10/19 07:45:05;;;;;;;35.17;20.83;;;;;;;;;;4985674;28;20026;-75
2021/10/19 07:47:31;;;;;;;31.08;21.48;;;;;;;;;;4968683;28;20030;-74
2021/10/19 07:49:57;;;;;;;31.85;20.48;;;;;;;;;;4984520;28;20162;-77
2021/10/19 07:52:23;;;;;;;31.25;20.30;;;;;;;;;;4981405;28;20039;-76
2021/10/19 07:54:58;;;;;;;26.92;20.27;;;;;;;;;;4985869;28;20027;-77
2021/10/19 08:03:04;;;;;;;28.33;21.73;;;;;;;;;;4979772;28;20046;-77
2021/10/19 08:05:42;;;;;;;37.13;22.05;;;;;;;;;;4961868;28;20039;-78
2021/10/19 08:08:10;;;;;;;35.55;22.38;;;;;;;;;;4925821;29;20143;-76
2021/10/19 08:10:41;;;;;;;39.47;23.20;;;;;;;;;;4950921;28;20089;-73
2021/10/19 08:13:18;;;;;;;36.25;23.23;;;;;;;;;;4967070;28;20071;-77
2021/10/19 08:15:46;;;;;;;35.33;21.98;;;;;;;;;;4971937;28;20040;-79
2021/10/19 08:18:14;;;;;;;30.98;22.55;;;;;;;;;;4931822;28;20086;-76
2021/10/19 08:20:40;;;;;;;39.63;22.42;;;;;;;;;;4948083;29;20086;-77
2021/10/19 08:23:08;;;;;;;35.30;20.88;;;;;;;;;;4936740;28;20067;-76
2021/10/19 08:25:34;;;;;;;27.20;21.02;;;;;;;;;;4949435;29;20122;-76
2021/10/19 08:28:08;;;;;;;27.25;21.30;;;;;;;;;;4958925;29;20024;-76
2021/10/19 08:30:34;;;;;;;31.25;21.92;;;;;;;;;;4935477;29;20122;-75
2021/10/19 08:33:01;;;;;;;32.22;21.30;;;;;;;;;;4920468;29;20030;-73
2021/10/19 08:35:28;;;;;;;27.20;21.42;;;;;;;;;;4937935;29;20382;-75
2021/10/19 08:38:01;;;;;;;30.55;21.42;;;;;;;;;;4968840;29;20023;-81
2021/10/19 08:40:30;;;;;;;30.23;21.40;;;;;;;;;;4957690;29;20102;-78
2021/10/19 08:43:05;;;;;;;32.28;22.83;;;;;;;;;;5050475;23;20063;-77
2021/10/19 08:45:31;;;;;;;28.10;20.77;;;;;;;;;;4971017;28;20071;-76
2021/10/19 08:48:02;;;;;;;32.25;22.40;;;;;;;;;;4959312;29;20031;-77
2021/10/19 08:50:29;;;;;;;29.55;22.25;;;;;;;;;;4957275;29;20058;-75
2021/10/19 08:52:55;;;;;;;31.20;21.40;;;;;;;;;;4963524;28;20023;-76
2021/10/19 08:55:23;;;;;;;36.55;23.23;;;;;;;;;;4960567;28;20023;-75
2021/10/19 08:57:49;;;;;;;33.33;21.25;;;;;;;;;;4961951;29;20024;-77
2021/10/19 09:00:16;;;;;;;33.53;21.73;;;;;;;;;;4955652;29;20031;-74
2021/10/19 09:02:43;;;;;;;33.83;21.60;;;;;;;;;;4961615;28;20032;-76
2021/10/19 09:05:20;;;;;;;31.90;21.63;;;;;;;;;;4964260;29;20031;-76
2021/10/19 09:08:18;;;;;;;30.25;20.77;;;;;;;;;;4983415;28;20047;-79
2021/10/19 09:10:48;;;;;;;30.00;20.80;;;;;;;;;;4886097;29;20045;-76
2021/10/19 09:13:19;;;;;;;31.05;20.90;;;;;;;;;;4880697;29;20045;-76
2021/10/19 09:15:59;;;;;;;31.42;21.75;;;;;;;;;;4895443;29;20081;-78
2021/10/19 09:21:10;;;;;;;30.33;21.13;;;;;;;;;;4889612;29;20026;-78
2021/10/19 09:23:36;;;;;;;35.58;22.00;;;;;;;;;;4896469;29;20076;-73
2021/10/19 09:26:03;;;;;;;32.75;20.95;;;;;;;;;;4883052;29;20483;-73
2021/10/19 09:28:39;;;;;;;29.63;19.35;;;;;;;;;;4879467;29;20037;-71
2021/10/19 09:31:05;;;;;;;30.52;20.40;;;;;;;;;;4864115;29;20044;-73
2021/10/19 09:33:32;;;;;;;29.58;19.98;;;;;;;;;;4875045;29;20097;-73
2021/10/19 09:35:59;;;;;;;28.15;19.60;;;;;;;;;;4859617;29;20037;-73
2021/10/19 09:38:25;;;;;;;20.80;13.77;;;;;;;;;;4877521;29;20479;-74
2021/10/19 09:40:53;;;;;;;23.30;14.10;;;;;;;;;;4876380;29;20033;-73
2021/10/19 09:43:20;;;;;;;22.40;16.67;;;;;;;;;;4877914;29;20467;-73
2021/10/19 09:45:49;;;;;;;26.02;17.25;;;;;;;;;;4893919;29;20042;-73
2021/10/19 09:48:17;;;;;;;22.65;15.40;;;;;;;;;;4947862;29;20058;-73
2021/10/19 09:50:45;;;;;;;23.98;13.88;;;;;;;;;;4949071;29;20524;-71
2021/10/19 09:53:12;;;;;;;21.73;14.48;;;;;;;;;;4928680;29;20063;-71
2021/10/19 09:55:40;;;;;;;23.23;13.30;;;;;;;;;;4954558;29;20023;-73
2021/10/19 09:58:11;;;;;;;23.52;14.23;;;;;;;;;;4950053;29;20027;-71
2021/10/19 10:00:38;;;;;;;25.95;15.05;;;;;;;;;;4954676;29;20035;-71
2021/10/19 10:03:04;;;;;;;23.83;14.15;;;;;;;;;;4954929;29;20047;-73
2021/10/19 10:05:38;;;;;;;20.40;13.48;;;;;;;;;;4954733;29;20051;-73
2021/10/19 10:08:05;;;;;;;25.05;14.43;;;;;;;;;;4951872;28;20039;-73
2021/10/19 10:10:31;;;;;;;20.27;13.07;;;;;;;;;;4966712;28;20038;-71
2021/10/19 10:13:03;;;;;;;18.92;12.15;;;;;;;;;;4954890;28;20035;-71
2021/10/19 10:15:46;;;;;;;;;;;;;;;;;;;;;
2021/10/19 10:18:13;;;;;;;21.10;12.45;;;;;;;;;;4974328;23;20415;-72
2021/10/19 10:20:40;;;;;;;16.15;11.35;;;;;;;;;;4989432;28;20093;-73
2021/10/19 10:23:15;;;;;;;15.90;9.77;;;;;;;;;;4976804;28;20388;-73
2021/10/19 10:25:41;;;;;;;15.98;10.30;;;;;;;;;;4986381;28;20022;-73
2021/10/19 10:28:15;;;;;;;18.80;12.02;;;;;;;;;;4996554;28;20030;-73
2021/10/19 10:30:49;;;;;;;16.60;10.90;;;;;;;;;;5012603;28;20034;-74
2021/10/19 10:33:16;;;;;;;19.33;10.88;;;;;;;;;;5012117;28;20056;-70
2021/10/19 10:35:43;;;;;;;13.90;10.40;;;;;;;;;;5011712;28;20122;-72
2021/10/19 10:38:09;;;;;;;20.48;10.95;;;;;;;;;;5013128;28;20034;-72
2021/10/19 10:40:39;;;;;;;14.73;10.07;;;;;;;;;;5012067;28;20029;-70
2021/10/19 10:43:22;;;;;;;15.13;9.73;;;;;;;;;;5006270;28;20035;-69
2021/10/19 10:46:00;;;;;;;17.60;9.43;;;;;;;;;;5010824;28;20033;-71
2021/10/19 10:48:27;;;;;;;15.05;9.55;;;;;;;;;;5015367;28;20468;-70
2021/10/19 10:50:55;;;;;;;15.95;9.80;;;;;;;;;;5015816;28;20081;-69
2021/10/19 10:53:21;;;;;;;17.92;9.65;;;;;;;;;;5015586;28;20025;-71
2021/10/19 11:01:19;;;;;;;15.52;9.90;;;;;;;;;;4957219;28;20517;-70
2021/10/19 11:03:49;;;;;;;15.40;9.88;;;;;;;;;;4956884;28;20035;-71
2021/10/19 11:06:17;;;;;;;17.08;9.60;;;;;;;;;;4955487;29;20103;-69
2021/10/19 11:08:43;;;;;;;15.75;9.65;;;;;;;;;;4957514;29;20090;-68
2021/10/19 11:11:09;;;;;;;15.88;9.75;;;;;;;;;;4957341;29;20042;-71
2021/10/19 11:13:50;;;;;;;18.83;9.45;;;;;;;;;;4956872;28;20030;-73
2021/10/19 11:16:17;;;;;;;14.07;9.60;;;;;;;;;;4955746;28;20035;-71
2021/10/19 11:18:44;;;;;;;19.17;10.55;;;;;;;;;;4966508;28;20127;-67
2021/10/19 11:21:10;;;;;;;17.15;10.13;;;;;;;;;;4955836;28;20031;-66
2021/10/19 11:23:40;;;;;;;17.65;10.95;;;;;;;;;;4961300;28;20381;-72
2021/10/19 11:26:07;;;;;;;16.58;9.95;;;;;;;;;;4956951;29;20027;-69
2021/10/19 11:28:35;;;;;;;18.23;10.27;;;;;;;;;;4955969;28;20385;-71
2021/10/19 11:31:01;;;;;;;16.60;9.65;;;;;;;;;;4956719;29;20054;-70
2021/10/19 11:33:32;;;;;;;16.92;9.90;;;;;;;;;;4956594;29;20035;-70
2021/10/19 11:36:00;;;;;;;15.80;10.68;;;;;;;;;;4939431;28;20023;-78
2021/10/19 11:38:27;;;;;;;19.08;10.70;;;;;;;;;;4967270;29;20035;-76
2021/10/19 11:40:53;;;;;;;14.43;9.68;;;;;;;;;;4960761;28;20074;-76
2021/10/19 11:43:19;;;;;;;16.00;9.73;;;;;;;;;;4958022;29;20030;-75
2021/10/19 11:45:45;;;;;;;13.00;10.18;;;;;;;;;;4975395;28;20045;-76
2021/10/19 11:48:13;;;;;;;17.85;9.90;;;;;;;;;;4970247;28;20019;-78
2021/10/19 11:50:43;;;;;;;17.52;9.93;;;;;;;;;;4960447;28;20508;-79
2021/10/19 11:58:25;;;;;;;14.95;10.55;;;;;;;;;;663107;26;20410;-71
2021/10/19 12:00:52;;;;;;;15.05;10.00;;;;;;;;;;5042283;28;20029;-71
2021/10/19 12:03:18;;;;;;;15.93;10.30;;;;;;;;;;5046343;28;20037;-77
2021/10/19 12:05:44;;;;;;;17.52;9.95;;;;;;;;;;5014992;28;20533;-69
2021/10/19 12:08:10;;;;;;;15.73;9.60;;;;;;;;;;5032273;28;20087;-69
2021/10/19 12:10:37;;;;;;;16.35;9.88;;;;;;;;;;5034491;28;20144;-69
2021/10/19 12:13:07;;;;;;;15.50;9.35;;;;;;;;;;5026718;28;20040;-71
2021/10/19 12:15:42;;;;;;;12.73;8.73;;;;;;;;;;5040612;28;20021;-72
2021/10/19 12:18:37;;;;;;;15.48;9.13;;;;;;;;;;5011594;28;20168;-71
2021/10/19 12:21:04;;;;;;;15.30;9.40;;;;;;;;;;5025731;28;20034;-68
2021/10/19 12:23:30;;;;;;;15.90;9.50;;;;;;;;;;5034372;28;20030;-72
2021/10/19 12:29:33;;;;;;;14.57;8.35;;;;;;;;;;5024678;28;20117;-71
2021/10/19 12:32:26;;;;;;;13.52;8.25;;;;;;;;;;5008666;28;20049;-73
2021/10/19 12:35:07;;;;;;;17.52;8.90;;;;;;;;;;4956493;28;20532;-74
2021/10/19 12:37:34;;;;;;;14.75;9.10;;;;;;;;;;4934389;29;20047;-73
2021/10/19 12:40:02;;;;;;;14.93;8.80;;;;;;;;;;4958220;28;20043;-77
2021/10/19 12:42:28;;;;;;;10.82;7.93;;;;;;;;;;4954642;28;20039;-77
2021/10/19 12:44:54;;;;;;;13.63;8.27;;;;;;;;;;4954768;29;20516;-74
2021/10/19 12:47:20;;;;;;;12.57;7.75;;;;;;;;;;4955481;28;20459;-71
2021/10/19 12:49:46;;;;;;;13.43;8.13;;;;;;;;;;4956369;28;20510;-68
2021/10/19 12:52:12;;;;;;;21.00;8.88;;;;;;;;;;4957281;28;20452;-70
2021/10/19 12:54:38;;;;;;;13.60;7.85;;;;;;;;;;4954174;28;20035;-71
2021/10/19 12:57:04;;;;;;;12.20;7.38;;;;;;;;;;4957178;28;20069;-72
2021/10/19 12:59:32;;;;;;;13.32;8.55;;;;;;;;;;4957751;28;20113;-72
2021/10/19 13:01:59;;;;;;;12.18;7.57;;;;;;;;;;4957097;28;20157;-74
2021/10/19 13:04:25;;;;;;;13.35;8.30;;;;;;;;;;4966001;28;20042;-68
2021/10/19 13:06:51;;;;;;;12.90;7.72;;;;;;;;;;5025174;28;20017;-71
2021/10/19 13:09:18;;;;;;;15.43;8.50;;;;;;;;;;5032151;28;20033;-71
2021/10/19 13:11:44;;;;;;;13.98;7.95;;;;;;;;;;5026875;28;20072;-73
2021/10/19 13:14:10;;;;;;;14.65;8.10;;;;;;;;;;5032498;28;20112;-72
2021/10/19 13:16:36;;;;;;;13.18;7.40;;;;;;;;;;5032471;28;20127;-69
2021/10/19 13:19:03;;;;;;;10.73;7.78;;;;;;;;;;5031825;28;20580;-75
2021/10/19 13:21:29;;;;;;;14.82;8.88;;;;;;;;;;5030970;28;20445;-72
2021/10/19 13:23:55;;;;;;;17.85;8.45;;;;;;;;;;5032460;28;20030;-73
2021/10/19 13:26:21;;;;;;;18.73;9.85;;;;;;;;;;5031991;28;20036;-70
2021/10/19 13:28:47;;;;;;;14.35;8.15;;;;;;;;;;5030472;28;20170;-70
2021/10/19 13:31:23;;;;;;;15.57;8.05;;;;;;;;;;5031242;28;20033;-76
2021/10/19 13:33:50;;;;;;;10.82;8.57;;;;;;;;;;5031442;28;20033;-72
2021/10/19 13:36:16;;;;;;;11.60;7.57;;;;;;;;;;5032194;28;20167;-74
2021/10/19 13:38:42;;;;;;;14.38;7.95;;;;;;;;;;5027003;28;20025;-72
2021/10/19 13:41:08;;;;;;;14.05;7.50;;;;;;;;;;5035233;28;20482;-72
2021/10/19 13:43:35;;;;;;;12.00;7.65;;;;;;;;;;5032570;28;20558;-72
2021/10/19 13:46:01;;;;;;;13.25;8.45;;;;;;;;;;5030737;28;20025;-76
2021/10/19 13:48:38;;;;;;;33.00;17.23;;;;;;;;;;5024282;28;20029;-75
2021/10/19 13:51:04;;;;;;;12.10;7.82;;;;;;;;;;5026836;28;20037;-73
2021/10/19 13:53:32;;;;;;;14.05;7.80;;;;;;;;;;5030108;28;20116;-74
2021/10/19 13:55:58;;;;;;;12.45;8.40;;;;;;;;;;5031260;28;20097;-74
2021/10/19 13:58:36;;;;;;;14.05;7.47;;;;;;;;;;5031906;28;20033;-72
2021/10/19 14:01:02;;;;;;;11.93;8.50;;;;;;;;;;5032854;28;20045;-74
2021/10/19 14:03:28;;;;;;;14.48;8.20;;;;;;;;;;5031143;28;20026;-74
2021/10/19 14:05:54;;;;;;;12.85;8.25;;;;;;;;;;5025153;28;20033;-74
2021/10/19 14:08:22;;;;;;;13.35;7.78;;;;;;;;;;5030250;28;20017;-74
2021/10/19 14:10:49;;;;;;;13.30;8.10;;;;;;;;;;5023798;28;20048;-74
2021/10/19 14:13:15;;;;;;;12.27;8.02;;;;;;;;;;5021058;28;20029;-73
2021/10/19 14:15:46;;;;;;;14.02;7.97;;;;;;;;;;5012177;28;20037;-74
2021/10/19 14:18:13;;;;;;;37.63;22.42;;;;;;;;;;5022003;28;20034;-73
2021/10/19 14:20:42;;;;;;;26.77;14.02;;;;;;;;;;5018145;28;20036;-76
2021/10/19 14:23:11;;;;;;;14.50;8.23;;;;;;;;;;5017028;28;20046;-74
2021/10/19 14:25:46;;;;;;;15.27;8.05;;;;;;;;;;5025197;28;20040;-77
2021/10/19 14:28:28;;;;;;;17.48;8.48;;;;;;;;;;5032057;28;20474;-74
2021/10/19 14:31:02;;;;;;;15.18;8.55;;;;;;;;;;5028493;28;20045;-75
2021/10/19 14:33:28;;;;;;;12.88;7.90;;;;;;;;;;5019208;28;20028;-76
2021/10/19 14:35:54;;;;;;;15.25;7.85;;;;;;;;;;5038163;28;20033;-74
2021/10/19 14:38:20;;;;;;;15.82;7.28;;;;;;;;;;5038598;28;20029;-75
2021/10/19 14:40:46;;;;;;;10.65;7.40;;;;;;;;;;5029396;28;20083;-71
2021/10/19 14:43:21;;;;;;;14.10;8.02;;;;;;;;;;5036042;28;20053;-70
2021/10/19 14:46:22;;;;;;;;;;;;;;;;;;;;;
2021/10/19 14:48:50;;;;;;;10.38;7.25;;;;;;;;;;5036878;28;20021;-75
2021/10/19 14:51:16;;;;;;;11.38;7.38;;;;;;;;;;5035463;28;20079;-73
2021/10/19 15:03:17;;;;;;;13.55;9.02;;;;;;;;;;4908609;29;20040;-73
2021/10/19 15:05:47;;;;;;;13.90;9.05;;;;;;;;;;4918344;29;20123;-75
2021/10/19 15:08:13;;;;;;;24.35;14.60;;;;;;;;;;4917731;29;20107;-72
2021/10/19 15:16:44;;;;;;;17.75;11.93;;;;;;;;;;4898071;29;20035;-75